Time;durP1;ratioP1;P1;durP2;ratioP2;P2;SDS_P1;SDS_P2;PMS_P1;PMS_P2;Temp;Humidity;BMP_temperature;BMP_pressure;BME280_temperature;BME280_humidity;BME280_pressure;Samples;Min_cycle;Max_cycle;Signal;HPM_P1;HPM_P2
2023/02/22 00:02:09;;;;;;;32.22;14.45;;;6.10;8.20;;;;;;7395036;19;20015;-69
2023/02/22 00:04:40;;;;;;;31.13;15.38;;;6.10;8.30;;;;;;7394766;19;20010;-70
2023/02/22 00:07:10;;;;;;;34.42;14.02;;;6.10;8.50;;;;;;7394255;19;20014;-68
2023/02/22 00:09:40;;;;;;;26.35;13.18;;;6.10;8.60;;;;;;7392306;19;20017;-69
2023/02/22 00:12:10;;;;;;;24.30;13.40;;;6.00;8.50;;;;;;7393514;19;20019;-69
2023/02/22 00:14:42;;;;;;;24.08;13.93;;;6.00;8.90;;;;;;7394539;19;20019;-69
2023/02/22 00:17:12;;;;;;;23.80;12.20;;;6.00;9.00;;;;;;7394163;19;20078;-70
2023/02/22 00:19:42;;;;;;;23.60;12.43;;;6.10;9.50;;;;;;7392072;19;20328;-70
2023/02/22 00:22:11;;;;;;;24.00;13.07;;;6.10;9.00;;;;;;7393608;19;20090;-70
2023/02/22 00:24:41;;;;;;;19.45;11.45;;;6.10;9.10;;;;;;7393566;19;20021;-70
2023/02/22 00:27:11;;;;;;;22.50;11.65;;;6.10;8.40;;;;;;7393313;19;20437;-70
2023/02/22 00:29:46;;;;;;;22.70;11.32;;;6.10;7.90;;;;;;7394586;19;20095;-70
2023/02/22 00:32:16;;;;;;;19.25;10.95;;;6.10;8.00;;;;;;7393062;19;20496;-70
2023/02/22 00:34:47;;;;;;;27.35;11.02;;;5.90;8.00;;;;;;7394728;19;20042;-71
2023/02/22 00:37:17;;;;;;;23.98;10.90;;;6.00;8.90;;;;;;7391453;19;20022;-70
2023/02/22 00:39:48;;;;;;;22.15;10.95;;;6.00;8.50;;;;;;7391819;19;20016;-71
2023/02/22 00:42:18;;;;;;;21.95;10.50;;;6.10;8.60;;;;;;7392899;19;20014;-70
2023/02/22 00:44:51;;;;;;;19.98;10.77;;;6.20;7.20;;;;;;7391546;19;20017;-70
2023/02/22 00:47:21;;;;;;;22.42;10.82;;;6.20;6.90;;;;;;7392051;19;20078;-69
2023/02/22 00:49:51;;;;;;;19.30;10.65;;;6.30;7.10;;;;;;7390937;19;20010;-70
2023/02/22 00:52:20;;;;;;;19.88;10.70;;;6.30;6.20;;;;;;7392349;19;20010;-69
2023/02/22 00:54:50;;;;;;;20.90;10.52;;;6.30;6.20;;;;;;7392328;19;20014;-71
2023/02/22 00:57:20;;;;;;;21.23;10.45;;;6.20;6.10;;;;;;7392170;19;20014;-70
2023/02/22 00:59:53;;;;;;;22.13;11.77;;;6.20;6.40;;;;;;7391161;19;20346;-69
2023/02/22 01:02:23;;;;;;;20.00;11.40;;;6.20;6.70;;;;;;7392299;19;20042;-70
2023/02/22 01:04:53;;;;;;;21.65;11.10;;;6.10;6.70;;;;;;7390905;19;20018;-69
2023/02/22 01:07:23;;;;;;;20.85;11.52;;;6.00;7.40;;;;;;7391883;19;20010;-70
2023/02/22 01:09:53;;;;;;;18.50;11.10;;;5.90;8.50;;;;;;7389990;19;20362;-69
2023/02/22 01:12:23;;;;;;;21.45;11.07;;;5.90;8.50;;;;;;7391368;19;20013;-69
2023/02/22 01:14:57;;;;;;;21.15;10.82;;;5.90;9.00;;;;;;7391923;19;20537;-69
2023/02/22 01:17:27;;;;;;;17.95;10.23;;;5.90;8.70;;;;;;7390722;19;20015;-69
2023/02/22 01:19:57;;;;;;;22.08;9.85;;;5.80;9.00;;;;;;7389899;19;20025;-69
2023/02/22 01:22:27;;;;;;;18.80;10.13;;;5.90;9.00;;;;;;7391480;19;20035;-70
2023/02/22 01:24:56;;;;;;;17.80;10.23;;;5.90;9.10;;;;;;7390871;19;20014;-70
2023/02/22 01:27:26;;;;;;;15.73;10.55;;;5.90;8.90;;;;;;7391619;19;20037;-69
2023/02/22 01:29:59;;;;;;;15.63;10.27;;;5.90;8.50;;;;;;7393000;19;20074;-69
2023/02/22 01:32:29;;;;;;;15.80;9.82;;;5.90;8.10;;;;;;7390872;19;20011;-70
2023/02/22 01:34:59;;;;;;;15.65;10.10;;;5.80;8.50;;;;;;7392223;19;20395;-68
2023/02/22 01:37:29;;;;;;;15.55;9.73;;;5.80;8.70;;;;;;7392714;19;20025;-70
2023/02/22 01:39:58;;;;;;;14.88;9.55;;;5.80;9.20;;;;;;7385809;19;20458;-69
2023/02/22 01:42:29;;;;;;;17.05;9.70;;;5.70;9.00;;;;;;7386934;19;20041;-69
2023/02/22 01:45:29;;;;;;;18.00;10.00;;;5.70;9.40;;;;;;7385452;19;20709;-69
2023/02/22 01:48:05;;;;;;;21.98;10.13;;;5.60;9.70;;;;;;7385553;19;20521;-69
2023/02/22 01:50:39;;;;;;;14.25;9.20;;;5.50;10.30;;;;;;7381515;19;20018;-69
2023/02/22 01:53:10;;;;;;;18.73;9.38;;;5.40;10.70;;;;;;7359493;19;20014;-69
2023/02/22 01:55:40;;;;;;;16.55;9.93;;;5.40;11.10;;;;;;7359671;19;20095;-70
2023/02/22 01:58:11;;;;;;;15.82;8.95;;;5.40;11.10;;;;;;7363084;19;20354;-68
2023/02/22 02:00:43;;;;;;;15.05;9.35;;;5.40;11.40;;;;;;7361467;19;20018;-68
2023/02/22 02:03:20;;;;;;;18.15;9.68;;;5.30;11.90;;;;;;7366419;19;20058;-69
2023/02/22 02:05:52;;;;;;;19.92;10.05;;;5.30;12.50;;;;;;7383706;19;20537;-69
2023/02/22 02:08:30;;;;;;;18.85;10.02;;;5.30;12.70;;;;;;7362127;19;20011;-69
2023/02/22 02:11:03;;;;;;;15.65;9.75;;;5.40;12.70;;;;;;7364410;19;20418;-69
2023/02/22 02:13:33;;;;;;;16.90;10.48;;;5.40;12.30;;;;;;7362890;19;20032;-69
2023/02/22 02:16:02;;;;;;;15.00;9.88;;;5.30;12.40;;;;;;7361874;19;20358;-70
2023/02/22 02:18:35;;;;;;;15.70;9.77;;;5.40;12.20;;;;;;7361555;19;20011;-70
2023/02/22 02:21:42;;;;;;;15.30;10.00;;;5.40;12.00;;;;;;7361517;19;20017;-70
2023/02/22 02:24:38;;;;;;;17.58;10.13;;;5.30;12.00;;;;;;7361666;19;20082;-69
2023/02/22 02:27:14;;;;;;;12.77;9.25;;;5.30;12.60;;;;;;7361661;19;20002;-69
2023/02/22 02:30:25;;;;;;;14.40;10.18;;;5.40;12.00;;;;;;7384148;19;20074;-69
2023/02/22 02:33:01;;;;;;;18.73;10.68;;;5.40;12.00;;;;;;7359301;19;20387;-69
2023/02/22 02:35:42;;;;;;;15.45;9.88;;;5.30;11.20;;;;;;7361607;19;20025;-70
2023/02/22 02:38:18;;;;;;;16.75;10.35;;;5.30;11.40;;;;;;7360911;19;20156;-69
2023/02/22 02:40:52;;;;;;;16.08;10.10;;;5.30;11.30;;;;;;7361006;19;20015;-69
2023/02/22 02:43:30;;;;;;;16.17;10.65;;;5.30;10.90;;;;;;7361455;19;20038;-68
2023/02/22 02:46:07;;;;;;;18.60;10.40;;;5.30;10.80;;;;;;7361488;19;20014;-70
2023/02/22 02:48:44;;;;;;;14.10;9.75;;;5.30;10.80;;;;;;7360697;19;20019;-70
2023/02/22 02:51:14;;;;;;;15.38;10.23;;;5.20;11.10;;;;;;7360778;19;20019;-69
2023/02/22 02:53:50;;;;;;;14.93;9.90;;;5.10;11.50;;;;;;7382394;19;20023;-70
2023/02/22 02:56:22;;;;;;;16.88;9.88;;;5.10;12.20;;;;;;7360691;19;20497;-70
2023/02/22 02:58:53;;;;;;;13.52;9.25;;;5.10;12.60;;;;;;7358861;19;20011;-69
2023/02/22 03:01:39;;;;;;;14.35;9.50;;;5.20;12.70;;;;;;7362355;19;20014;-69
2023/02/22 03:04:30;;;;;;;14.98;9.82;;;5.30;11.90;;;;;;7360790;19;20019;-69
2023/02/22 03:07:12;;;;;;;15.07;9.98;;;5.20;11.50;;;;;;7360644;19;20514;-69
2023/02/22 03:09:57;;;;;;;13.30;9.10;;;5.30;11.30;;;;;;7359964;19;20119;-68
2023/02/22 03:12:37;;;;;;;14.05;9.63;;;5.30;10.90;;;;;;7362157;19;20138;-68
2023/02/22 03:15:16;;;;;;;15.65;10.07;;;5.20;10.60;;;;;;7368047;19;20473;-70
2023/02/22 03:17:54;;;;;;;17.08;10.18;;;5.30;10.70;;;;;;7389791;19;20053;-70
2023/02/22 03:20:31;;;;;;;16.23;9.55;;;5.30;10.30;;;;;;7365277;19;20015;-68
2023/02/22 03:23:08;;;;;;;15.02;9.40;;;5.20;10.30;;;;;;7367637;19;20018;-69
2023/02/22 03:25:41;;;;;;;13.85;9.82;;;5.20;10.70;;;;;;7366939;19;20025;-69
2023/02/22 03:28:14;;;;;;;15.00;10.65;;;5.20;10.60;;;;;;7371236;19;20011;-70
2023/02/22 03:30:49;;;;;;;13.90;9.73;;;5.20;10.70;;;;;;7370436;19;20014;-69
2023/02/22 03:33:27;;;;;;;14.05;10.13;;;5.20;10.90;;;;;;7368239;19;20011;-65
2023/02/22 03:36:04;;;;;;;19.13;10.57;;;5.10;10.90;;;;;;7390975;19;20525;-69
2023/02/22 03:38:38;;;;;;;15.45;10.27;;;5.10;11.20;;;;;;7366667;19;20017;-68
2023/02/22 03:41:11;;;;;;;18.58;11.25;;;5.10;11.50;;;;;;7366561;19;20536;-69
2023/02/22 03:43:45;;;;;;;19.13;11.00;;;5.10;11.30;;;;;;7366722;19;20017;-68
2023/02/22 03:46:16;;;;;;;16.38;10.90;;;5.00;11.40;;;;;;7367067;19;20015;-70
2023/02/22 03:48:53;;;;;;;15.85;10.32;;;4.90;11.90;;;;;;7365871;19;20055;-69
2023/02/22 03:51:26;;;;;;;17.45;10.38;;;5.00;12.50;;;;;;7366572;19;20027;-69
2023/02/22 03:53:56;;;;;;;16.35;10.60;;;5.00;12.00;;;;;;7388343;19;20018;-69
2023/02/22 03:56:35;;;;;;;16.40;10.20;;;5.10;11.00;;;;;;7366653;19;20074;-70
2023/02/22 03:59:07;;;;;;;14.20;9.95;;;5.10;10.70;;;;;;7366744;19;20011;-69
2023/02/22 04:01:37;;;;;;;17.33;10.38;;;5.00;11.00;;;;;;7367892;19;20021;-70
2023/02/22 04:04:07;;;;;;;16.65;10.88;;;5.10;10.70;;;;;;7365964;19;20478;-69
2023/02/22 04:06:39;;;;;;;17.42;10.25;;;5.10;9.80;;;;;;7365791;19;20021;-69
2023/02/22 04:09:09;;;;;;;14.63;10.10;;;5.10;9.50;;;;;;7364506;19;20018;-70
2023/02/22 04:11:39;;;;;;;16.67;9.98;;;5.10;9.40;;;;;;7386323;19;20493;-69
2023/02/22 04:14:08;;;;;;;15.43;9.90;;;5.10;9.10;;;;;;7365506;19;20078;-69
2023/02/22 04:16:38;;;;;;;14.00;9.63;;;5.10;8.70;;;;;;7365244;19;20015;-69
2023/02/22 04:19:08;;;;;;;18.70;9.38;;;5.00;9.00;;;;;;7364422;19;20018;-69
2023/02/22 04:21:40;;;;;;;15.25;9.90;;;4.90;9.30;;;;;;7365086;19;20018;-69
2023/02/22 04:24:10;;;;;;;15.90;9.70;;;5.00;9.20;;;;;;7363934;19;20490;-69
2023/02/22 04:26:40;;;;;;;15.23;9.77;;;5.00;9.00;;;;;;7386363;19;20015;-70
2023/02/22 04:29:10;;;;;;;14.98;9.48;;;5.00;8.70;;;;;;7365607;19;20028;-70
2023/02/22 04:31:40;;;;;;;15.50;9.88;;;4.90;8.90;;;;;;7364755;19;20402;-69
2023/02/22 04:34:10;;;;;;;18.58;9.70;;;4.90;9.00;;;;;;7364901;19;20014;-69
2023/02/22 04:36:43;;;;;;;16.25;9.63;;;4.90;9.20;;;;;;7364710;19;20662;-69
2023/02/22 04:39:13;;;;;;;15.97;9.60;;;4.90;9.90;;;;;;7364319;19;20097;-69
2023/02/22 04:41:43;;;;;;;16.33;10.10;;;4.90;9.90;;;;;;7385969;19;20482;-69
2023/02/22 04:44:13;;;;;;;15.35;9.32;;;5.00;9.80;;;;;;7363843;19;20518;-69
2023/02/22 04:46:43;;;;;;;18.73;9.85;;;5.00;9.50;;;;;;7364504;19;20026;-68
2023/02/22 04:49:12;;;;;;;16.10;9.98;;;5.00;9.20;;;;;;7363124;19;20019;-68
2023/02/22 04:51:45;;;;;;;16.80;9.40;;;4.90;8.90;;;;;;7364498;19;20010;-68
2023/02/22 04:54:16;;;;;;;14.52;9.75;;;5.00;9.10;;;;;;7366491;19;20010;-68
2023/02/22 04:56:46;;;;;;;15.32;9.45;;;5.00;9.10;;;;;;7385762;19;20018;-69
2023/02/22 04:59:16;;;;;;;18.33;8.98;;;5.00;9.20;;;;;;7366307;19;20387;-68
2023/02/22 05:01:45;;;;;;;12.73;9.23;;;5.00;8.80;;;;;;7365879;19;20506;-69
2023/02/22 05:04:15;;;;;;;14.93;8.82;;;5.00;8.90;;;;;;7364195;19;20542;-69
2023/02/22 05:06:48;;;;;;;16.70;9.43;;;5.00;9.00;;;;;;7364134;19;20015;-69
2023/02/22 05:09:18;;;;;;;14.35;9.20;;;5.00;7.90;;;;;;7363024;19;20546;-69
2023/02/22 05:11:48;;;;;;;13.63;8.55;;;5.00;7.90;;;;;;7385386;19;20042;-67
2023/02/22 05:14:18;;;;;;;15.13;8.88;;;5.00;7.50;;;;;;7361392;19;20022;-69
2023/02/22 05:16:50;;;;;;;17.85;9.27;;;4.90;7.50;;;;;;7363333;19;20010;-69
2023/02/22 05:19:20;;;;;;;13.95;9.10;;;5.00;7.80;;;;;;7362751;19;20014;-70
2023/02/22 05:21:52;;;;;;;17.15;9.57;;;5.00;7.90;;;;;;7363280;19;20531;-69
2023/02/22 05:24:22;;;;;;;14.43;9.30;;;5.00;7.20;;;;;;7363488;19;20090;-69
2023/02/22 05:26:52;;;;;;;13.63;9.40;;;5.00;7.60;;;;;;7384618;19;20014;-68
2023/02/22 05:29:22;;;;;;;16.25;8.55;;;5.00;6.80;;;;;;7363637;19;20010;-69
2023/02/22 05:31:52;;;;;;;11.75;8.00;;;4.90;6.50;;;;;;7363032;19;20478;-68
2023/02/22 05:34:22;;;;;;;17.40;9.35;;;4.90;6.80;;;;;;7360549;19;20015;-68
2023/02/22 05:36:55;;;;;;;13.85;9.25;;;4.90;6.80;;;;;;7362620;19;20078;-69
2023/02/22 05:39:25;;;;;;;13.38;9.10;;;4.90;7.20;;;;;;7362585;19;20021;-69
2023/02/22 05:41:55;;;;;;;16.75;8.52;;;4.90;7.40;;;;;;7384108;19;20019;-69
2023/02/22 05:44:25;;;;;;;13.40;9.65;;;4.80;7.20;;;;;;7362853;19;20010;-70
2023/02/22 05:46:55;;;;;;;21.67;10.02;;;4.80;7.70;;;;;;7362708;19;20011;-68
2023/02/22 05:49:24;;;;;;;20.27;9.82;;;4.90;7.60;;;;;;7362435;19;20366;-70
2023/02/22 05:51:58;;;;;;;17.40;9.27;;;4.80;8.00;;;;;;7364377;19;20427;-68
2023/02/22 05:54:28;;;;;;;15.07;9.75;;;4.80;7.90;;;;;;7361091;19;20585;-69
2023/02/22 05:56:58;;;;;;;16.88;9.68;;;4.70;8.30;;;;;;7383173;19;20074;-69
2023/02/22 05:59:29;;;;;;;13.75;9.43;;;4.70;8.00;;;;;;7362363;19;20007;-69
2023/02/22 06:01:58;;;;;;;14.48;10.07;;;4.70;8.70;;;;;;7364173;19;20015;-69
2023/02/22 06:04:29;;;;;;;16.77;8.70;;;4.70;8.60;;;;;;7362385;19;20373;-69
2023/02/22 06:07:02;;;;;;;14.75;10.38;;;4.70;8.70;;;;;;7362200;19;20018;-69
2023/02/22 06:09:31;;;;;;;14.13;9.60;;;4.70;8.50;;;;;;7362084;19;20010;-69
2023/02/22 06:12:01;;;;;;;16.73;10.55;;;4.70;8.60;;;;;;7368723;19;20470;-69
2023/02/22 06:14:31;;;;;;;17.65;10.50;;;4.80;8.30;;;;;;7381692;19;20093;-69
2023/02/22 06:17:01;;;;;;;14.13;8.98;;;4.80;7.80;;;;;;7360779;19;20014;-69
2023/02/22 06:19:31;;;;;;;15.65;9.85;;;4.70;8.20;;;;;;7360098;19;20109;-69
2023/02/22 06:22:04;;;;;;;16.40;9.27;;;4.80;8.10;;;;;;7362203;19;20581;-67
2023/02/22 06:24:33;;;;;;;16.55;9.68;;;4.80;8.00;;;;;;7362132;19;20011;-69
2023/02/22 06:27:04;;;;;;;15.75;9.15;;;4.80;8.30;;;;;;7361450;19;20019;-69
2023/02/22 06:29:34;;;;;;;15.27;9.68;;;4.80;8.30;;;;;;7384091;19;20021;-69
2023/02/22 06:32:03;;;;;;;16.35;9.20;;;4.80;8.70;;;;;;7360469;19;20705;-69
2023/02/22 06:34:34;;;;;;;15.77;10.20;;;4.80;8.70;;;;;;7361384;19;20014;-69
2023/02/22 06:37:06;;;;;;;15.65;9.60;;;4.80;8.70;;;;;;7361119;19;20011;-69
2023/02/22 06:39:36;;;;;;;16.00;9.88;;;4.80;8.80;;;;;;7359935;19;20014;-68
2023/02/22 06:42:06;;;;;;;14.60;8.95;;;4.70;8.80;;;;;;7360379;19;20058;-70
2023/02/22 06:44:36;;;;;;;17.77;10.23;;;4.90;9.00;;;;;;7381347;19;20026;-68
2023/02/22 06:47:06;;;;;;;19.88;10.00;;;5.00;7.90;;;;;;7367758;19;20010;-68
2023/02/22 06:49:35;;;;;;;17.10;9.50;;;5.00;7.40;;;;;;7366400;19;20126;-68
2023/02/22 06:52:10;;;;;;;18.05;9.60;;;5.10;7.10;;;;;;7368356;19;20014;-68
2023/02/22 06:54:42;;;;;;;19.48;10.15;;;5.10;7.20;;;;;;7367303;19;20496;-68
2023/02/22 06:57:12;;;;;;;16.85;9.52;;;5.20;6.40;;;;;;7368053;19;20474;-67
2023/02/22 06:59:41;;;;;;;18.58;9.77;;;5.20;6.20;;;;;;7389635;19;20022;-68
2023/02/22 07:02:12;;;;;;;17.00;9.18;;;5.30;6.00;;;;;;7370228;19;20484;-68
2023/02/22 07:04:42;;;;;;;15.68;8.57;;;5.40;5.60;;;;;;7369206;19;20010;-68
2023/02/22 07:07:15;;;;;;;16.85;9.10;;;5.50;4.40;;;;;;7369392;19;20542;-67
2023/02/22 07:09:47;;;;;;;14.63;9.13;;;5.60;4.30;;;;;;7369711;19;20439;-67
2023/02/22 07:12:17;;;;;;;14.23;8.57;;;5.70;3.60;;;;;;7369772;19;20014;-67
2023/02/22 07:14:47;;;;;;;16.08;9.43;;;5.70;2.40;;;;;;7388395;19;20082;-67
2023/02/22 07:17:17;;;;;;;18.85;8.50;;;5.90;2.20;;;;;;7367298;19;20015;-67
2023/02/22 07:19:47;;;;;;;16.35;8.65;;;6.00;1.30;;;;;;7365591;19;20010;-69
2023/02/22 07:22:19;;;;;;;12.88;8.82;;;6.10;1.00;;;;;;7367842;19;20015;-67
2023/02/22 07:24:49;;;;;;;15.27;8.52;;;6.10;1.00;;;;;;7367137;19;20022;-68
2023/02/22 07:27:19;;;;;;;20.63;8.65;;;6.10;1.00;;;;;;7366856;19;20030;-70
2023/02/22 07:29:49;;;;;;;12.98;8.48;;;6.10;1.00;;;;;;7389240;19;20018;-67
2023/02/22 07:32:19;;;;;;;21.35;8.45;;;6.20;1.00;;;;;;7365488;19;20019;-67
2023/02/22 07:34:49;;;;;;;17.48;8.82;;;6.20;1.00;;;;;;7365232;19;20019;-67
2023/02/22 07:37:22;;;;;;;16.90;8.50;;;6.30;1.00;;;;;;7366430;19;20011;-68
2023/02/22 07:39:52;;;;;;;15.50;9.13;;;6.30;1.00;;;;;;7368785;19;20451;-68
2023/02/22 07:42:22;;;;;;;14.90;8.38;;;6.40;1.00;;;;;;7389602;19;20018;-66
2023/02/22 07:44:52;;;;;;;17.95;8.73;;;6.50;1.00;;;;;;7362238;19;20030;-69
2023/02/22 07:47:22;;;;;;;17.02;8.85;;;6.60;1.00;;;;;;7366716;19;20490;-69
2023/02/22 07:49:52;;;;;;;15.38;9.32;;;6.50;1.00;;;;;;7365930;19;20018;-68
2023/02/22 07:52:25;;;;;;;16.88;8.98;;;6.60;1.00;;;;;;7360070;19;20014;-69
2023/02/22 07:54:55;;;;;;;16.48;8.10;;;6.60;1.00;;;;;;7363709;19;20014;-67
2023/02/22 07:57:25;;;;;;;14.05;8.50;;;6.70;1.00;;;;;;7386641;19;20079;-69
2023/02/22 07:59:55;;;;;;;13.88;8.95;;;6.70;1.00;;;;;;7366696;19;20018;-68
2023/02/22 08:02:27;;;;;;;14.23;9.38;;;6.80;1.00;;;;;;7364637;19;20015;-69
2023/02/22 08:04:57;;;;;;;15.60;8.73;;;6.90;1.00;;;;;;7365804;19;20011;-68
2023/02/22 08:07:29;;;;;;;18.67;9.15;;;6.90;1.00;;;;;;7365830;19;20037;-67
2023/02/22 08:09:59;;;;;;;17.42;9.95;;;6.90;1.00;;;;;;7363525;19;20509;-68
2023/02/22 08:12:29;;;;;;;15.55;9.60;;;6.80;1.00;;;;;;7386946;19;20094;-68
2023/02/22 08:14:58;;;;;;;21.17;10.30;;;6.50;1.00;;;;;;7365664;19;20018;-68
2023/02/22 08:17:28;;;;;;;15.38;10.02;;;6.40;1.00;;;;;;7366041;19;20021;-67
2023/02/22 08:19:58;;;;;;;15.90;10.15;;;6.50;1.00;;;;;;7363578;19;20014;-68
2023/02/22 08:22:31;;;;;;;22.73;10.43;;;6.70;1.00;;;;;;7366523;19;20474;-68
2023/02/22 08:25:00;;;;;;;19.35;9.88;;;6.70;1.00;;;;;;7368711;19;20025;-69
2023/02/22 08:27:32;;;;;;;16.33;9.60;;;6.70;1.00;;;;;;7387971;19;20098;-68
2023/02/22 08:30:02;;;;;;;22.42;10.32;;;6.60;1.00;;;;;;7365237;19;20515;-67
2023/02/22 08:32:32;;;;;;;17.67;11.00;;;6.70;1.00;;;;;;7365374;19;20027;-68
2023/02/22 08:35:03;;;;;;;18.70;10.38;;;6.80;1.00;;;;;;7362379;19;20014;-69
2023/02/22 08:37:35;;;;;;;20.30;10.70;;;6.60;1.00;;;;;;7364462;19;20031;-68
2023/02/22 08:40:06;;;;;;;16.42;10.32;;;6.90;1.00;;;;;;7362600;19;20021;-67
2023/02/22 08:42:36;;;;;;;17.10;9.95;;;7.00;1.00;;;;;;7386241;19;20041;-68
2023/02/22 08:45:06;;;;;;;15.00;10.35;;;7.20;1.00;;;;;;7366428;19;20490;-67
2023/02/22 08:47:38;;;;;;;16.02;9.98;;;7.40;1.00;;;;;;7366687;19;20578;-68
2023/02/22 08:50:09;;;;;;;14.52;9.50;;;7.50;1.00;;;;;;7365969;19;20021;-69
2023/02/22 08:52:41;;;;;;;14.93;10.05;;;7.70;1.00;;;;;;7366957;19;20016;-68
2023/02/22 08:55:11;;;;;;;13.95;9.32;;;7.70;1.00;;;;;;7363701;19;20019;-69
2023/02/22 08:57:41;;;;;;;19.67;10.35;;;7.80;1.00;;;;;;7386190;19;20016;-68
2023/02/22 09:00:12;;;;;;;13.52;8.23;;;8.10;1.00;;;;;;7362781;19;20691;-68
2023/02/22 09:02:42;;;;;;;17.45;9.20;;;8.40;1.00;;;;;;7363964;19;20015;-68
2023/02/22 09:05:12;;;;;;;18.88;9.57;;;8.40;1.00;;;;;;7364722;19;20015;-69
2023/02/22 09:07:46;;;;;;;15.27;9.70;;;8.80;1.00;;;;;;7365320;19;20018;-68
2023/02/22 09:10:17;;;;;;;16.75;8.10;;;9.10;1.00;;;;;;7362721;19;20026;-68
2023/02/22 09:12:47;;;;;;;14.98;7.95;;;9.10;1.00;;;;;;7385864;19;20081;-68
2023/02/22 09:15:17;;;;;;;23.02;13.65;;;9.20;1.00;;;;;;7361906;19;20014;-68
2023/02/22 09:17:47;;;;;;;14.40;8.98;;;9.20;1.00;;;;;;7363160;19;20517;-68
2023/02/22 09:20:20;;;;;;;11.57;7.78;;;9.20;1.00;;;;;;7362067;19;20394;-69
2023/02/22 09:22:54;;;;;;;11.25;7.63;;;9.40;1.00;;;;;;7363611;19;20031;-68
2023/02/22 09:25:26;;;;;;;14.82;8.45;;;9.30;1.00;;;;;;7362813;19;20010;-68
2023/02/22 09:27:56;;;;;;;14.25;8.13;;;9.40;1.00;;;;;;7362856;19;20481;-67
2023/02/22 09:30:30;;;;;;;17.58;8.18;;;9.50;1.00;;;;;;7387694;19;20086;-69
2023/02/22 09:33:03;;;;;;;13.02;8.32;;;9.30;1.00;;;;;;7363561;19;20024;-68
2023/02/22 09:35:34;;;;;;;14.00;8.88;;;9.20;1.00;;;;;;7361069;19;20011;-68
2023/02/22 09:38:07;;;;;;;14.60;8.65;;;9.50;1.00;;;;;;7366693;19;20031;-67
2023/02/22 09:40:43;;;;;;;17.77;9.20;;;9.90;1.00;;;;;;7361159;19;20018;-69
2023/02/22 09:43:24;;;;;;;14.02;8.65;;;10.00;1.00;;;;;;7362721;19;20021;-68
2023/02/22 09:46:10;;;;;;;12.50;9.25;;;10.00;1.00;;;;;;7363883;19;20014;-68
2023/02/22 09:48:52;;;;;;;13.38;9.38;;;10.20;1.00;;;;;;7386015;19;20010;-68
2023/02/22 09:51:26;;;;;;;15.02;9.82;;;10.30;1.00;;;;;;7365530;19;20011;-68
2023/02/22 09:54:03;;;;;;;12.73;9.25;;;10.50;1.00;;;;;;7361778;19;20094;-69
2023/02/22 09:56:35;;;;;;;15.10;8.63;;;10.50;1.00;;;;;;7361928;19;20015;-66
2023/02/22 09:59:08;;;;;;;15.40;9.23;;;10.60;1.00;;;;;;7358487;19;20086;-68
2023/02/22 10:01:42;;;;;;;14.85;8.75;;;10.70;1.00;;;;;;7384097;19;20090;-67
2023/02/22 10:04:20;;;;;;;10.40;8.40;;;10.80;1.00;;;;;;7363152;19;20024;-68
2023/02/22 10:07:04;;;;;;;13.52;8.93;;;11.00;1.00;;;;;;7383639;19;20038;-69
2023/02/22 10:09:42;;;;;;;12.63;8.88;;;11.00;1.00;;;;;;7360094;19;20504;-67
2023/02/22 10:12:16;;;;;;;13.80;8.85;;;11.10;1.00;;;;;;7361216;19;20014;-67
2023/02/22 10:15:00;;;;;;;16.90;10.23;;;11.10;1.00;;;;;;7361390;19;20039;-69
2023/02/22 10:17:34;;;;;;;15.35;9.25;;;11.30;1.00;;;;;;7361636;19;20011;-67
2023/02/22 10:20:20;;;;;;;;;;;11.60;1.00;;;;;;7360536;19;20578;-68
2023/02/22 10:23:03;;;;;;;13.93;8.55;;;11.50;1.00;;;;;;7361390;19;19921;-68
2023/02/22 10:25:38;;;;;;;13.70;9.15;;;11.70;1.00;;;;;;7361028;19;20030;-67
2023/02/22 10:28:17;;;;;;;16.75;9.75;;;11.70;1.00;;;;;;7361546;19;20018;-67
2023/02/22 10:30:55;;;;;;;14.07;9.38;;;11.90;1.00;;;;;;7381601;19;20542;-68
2023/02/22 10:33:28;;;;;;;12.13;8.68;;;11.80;1.00;;;;;;7361424;19;20021;-69
2023/02/22 10:35:58;;;;;;;14.57;9.30;;;11.80;1.00;;;;;;7360087;19;20081;-69
2023/02/22 10:38:31;;;;;;;14.77;10.02;;;11.80;1.00;;;;;;7362804;19;20010;-68
2023/02/22 10:41:17;;;;;;;14.23;10.00;;;12.00;1.00;;;;;;7363336;19;20074;-68
2023/02/22 10:43:47;;;;;;;16.45;9.15;;;12.30;1.00;;;;;;7368392;19;20030;-68
2023/02/22 10:46:21;;;;;;;14.48;8.13;;;12.50;1.00;;;;;;7361475;19;20014;-68
2023/02/22 10:48:55;;;;;;;16.00;8.38;;;12.40;1.00;;;;;;7383608;19;20017;-68
2023/02/22 10:51:25;;;;;;;16.25;8.27;;;12.10;1.00;;;;;;7364990;19;20369;-68
2023/02/22 10:54:02;;;;;;;15.10;8.85;;;12.30;1.00;;;;;;7360357;19;20010;-68
2023/02/22 10:56:35;;;;;;;16.50;8.65;;;12.30;1.00;;;;;;7359534;19;20114;-68
2023/02/22 10:59:06;;;;;;;11.68;7.95;;;12.40;1.00;;;;;;7358325;19;20497;-68
2023/02/22 11:01:39;;;;;;;14.82;8.95;;;12.30;1.00;;;;;;7360528;19;20022;-68
2023/02/22 11:04:14;;;;;;;10.93;8.93;;;12.10;1.00;;;;;;7359864;19;20454;-67
2023/02/22 11:06:47;;;;;;;13.75;8.95;;;12.20;1.00;;;;;;7382134;19;20022;-69
2023/02/22 11:09:21;;;;;;;15.63;8.60;;;12.20;1.00;;;;;;7358322;19;20018;-69
2023/02/22 11:12:12;;;;;;;11.23;8.18;;;12.30;1.00;;;;;;7359049;19;20019;-68
2023/02/22 11:14:42;;;;;;;15.05;9.45;;;12.20;1.00;;;;;;7359600;19;20598;-69
2023/02/22 11:17:16;;;;;;;14.60;8.45;;;12.30;1.00;;;;;;7359320;19;20021;-69
2023/02/22 11:19:48;;;;;;;11.70;8.80;;;12.40;1.00;;;;;;7358867;19;20014;-69
2023/02/22 11:22:24;;;;;;;13.30;9.23;;;12.30;1.00;;;;;;7359709;19;20014;-68
2023/02/22 11:24:57;;;;;;;13.77;9.55;;;12.20;1.00;;;;;;7359306;19;20010;-69
2023/02/22 11:27:42;;;;;;;15.25;8.40;;;12.40;1.00;;;;;;7380745;19;20106;-69
2023/02/22 11:30:34;;;;;;;15.45;9.60;;;12.60;1.00;;;;;;7360531;19;20015;-69
2023/02/22 11:33:22;;;;;;;15.18;9.02;;;12.90;1.00;;;;;;7360418;19;20007;-69
2023/02/22 11:35:55;;;;;;;13.95;8.77;;;13.00;1.00;;;;;;7365700;19;20011;-68
2023/02/22 11:38:27;;;;;;;13.27;9.15;;;13.00;1.00;;;;;;7368869;19;20085;-68
2023/02/22 11:41:15;;;;;;;15.80;9.98;;;12.90;1.00;;;;;;7368475;19;20020;-69
2023/02/22 11:43:50;;;;;;;12.57;8.50;;;12.90;1.00;;;;;;7365917;19;20030;-69
2023/02/22 11:46:24;;;;;;;16.90;8.63;;;13.00;1.00;;;;;;7365829;19;20538;-69
2023/02/22 11:49:00;;;;;;;13.38;9.02;;;12.70;1.00;;;;;;7366838;19;20086;-69
2023/02/22 11:51:40;;;;;;;13.70;8.75;;;12.70;1.00;;;;;;7392099;19;20010;-69
2023/02/22 11:54:27;;;;;;;15.55;9.25;;;13.10;1.00;;;;;;7365474;19;20014;-70
2023/02/22 11:57:09;;;;;;;13.98;8.90;;;13.40;1.00;;;;;;7364627;19;20018;-69
2023/02/22 11:59:54;;;;;;;12.73;8.98;;;13.50;1.00;;;;;;7364348;19;20082;-68
2023/02/22 12:02:29;;;;;;;;;;;13.50;1.00;;;;;;7366291;19;20007;-68
2023/02/22 12:05:08;;;;;;;;;;;13.40;1.00;;;;;;7366943;19;19927;-69
2023/02/22 12:07:49;;;;;;;14.95;8.48;;;13.30;1.00;;;;;;7365673;19;19914;-69
2023/02/22 12:10:28;;;;;;;11.45;8.98;;;13.10;1.00;;;;;;7364057;19;20011;-68
2023/02/22 12:13:11;;;;;;;14.48;9.13;;;13.10;1.00;;;;;;7365858;19;20078;-69
2023/02/22 12:15:52;;;;;;;12.43;9.13;;;13.20;1.00;;;;;;7397191;19;20804;-69
2023/02/22 12:18:30;;;;;;;12.82;9.20;;;13.30;1.00;;;;;;7348371;19;20038;-69
2023/02/22 12:21:04;;;;;;;15.73;9.75;;;13.30;1.00;;;;;;7363529;19;20027;-68
2023/02/22 12:23:49;;;;;;;17.30;9.75;;;13.30;1.00;;;;;;7364840;19;20078;-69
2023/02/22 12:26:26;;;;;;;16.25;10.02;;;13.30;1.00;;;;;;7364027;19;20011;-68
2023/02/22 12:29:00;;;;;;;14.43;9.90;;;13.50;1.00;;;;;;7361333;19;20022;-69
2023/02/22 12:31:37;;;;;;;12.75;9.25;;;13.40;1.00;;;;;;7366137;19;20383;-69
2023/02/22 12:34:14;;;;;;;14.40;9.32;;;13.10;1.00;;;;;;7363373;19;20092;-69
2023/02/22 12:36:49;;;;;;;15.23;10.15;;;13.20;1.00;;;;;;7383871;19;20378;-69
2023/02/22 12:39:41;;;;;;;14.65;9.38;;;13.10;1.00;;;;;;7360534;19;20014;-69
2023/02/22 12:42:28;;;;;;;14.18;9.52;;;13.10;1.00;;;;;;7365096;19;20025;-68
2023/02/22 12:45:05;;;;;;;16.75;10.20;;;13.30;1.00;;;;;;7363873;19;20018;-69
2023/02/22 12:47:47;;;;;;;14.73;9.70;;;13.30;1.00;;;;;;7361056;19;20501;-70
2023/02/22 12:50:22;;;;;;;13.00;9.85;;;13.50;1.00;;;;;;7358996;19;20501;-70
2023/02/22 12:52:57;;;;;;;12.85;9.20;;;13.50;1.00;;;;;;7363626;19;20011;-69
2023/02/22 12:55:30;;;;;;;14.90;9.02;;;13.80;1.00;;;;;;7368024;19;20031;-69
2023/02/22 12:58:08;;;;;;;15.35;9.88;;;13.80;1.00;;;;;;7355908;19;20017;-70
2023/02/22 13:00:45;;;;;;;13.10;9.93;;;13.70;1.00;;;;;;7383737;19;20014;-70
2023/02/22 13:03:30;;;;;;;18.80;10.32;;;14.00;1.00;;;;;;7363020;19;20464;-69
2023/02/22 13:06:20;;;;;;;14.75;9.38;;;14.10;1.00;;;;;;7361792;19;20086;-70
2023/02/22 13:09:02;;;;;;;13.38;9.55;;;14.20;1.00;;;;;;7355911;19;20022;-68
2023/02/22 13:11:41;;;;;;;16.98;11.05;;;14.20;1.00;;;;;;7365344;19;20057;-69
2023/02/22 13:14:28;;;;;;;13.00;9.63;;;14.10;1.00;;;;;;7362353;19;20020;-69
2023/02/22 13:17:05;;;;;;;17.17;9.73;;;14.20;1.00;;;;;;7355902;19;20113;-70
2023/02/22 13:19:45;;;;;;;15.63;9.90;;;14.20;1.00;;;;;;7361100;19;20513;-69
2023/02/22 13:22:20;;;;;;;12.77;9.85;;;14.10;1.00;;;;;;7363812;19;20014;-69
2023/02/22 13:25:03;;;;;;;17.98;10.07;;;14.00;1.00;;;;;;7370657;19;20490;-69